Time;durP1;ratioP1;P1;durP2;ratioP2;P2;SDS_P1;SDS_P2;PMS_P1;PMS_P2;Temp;Humidity;BMP_temperature;BMP_pressure;BME280_temperature;BME280_humidity;BME280_pressure;Samples;Min_cycle;Max_cycle;Signal;HPM_P1;HPM_P2
2023/11/16 00:01:27;;;;;;;19.80;9.93;;;;;;;;;;10289880;28;20405;-57
2023/11/16 00:06:27;;;;;;;20.35;10.48;;;;;;;;;;10288742;28;20071;-56
2023/11/16 00:11:27;;;;;;;23.92;9.40;;;;;;;;;;10285647;28;20072;-56
2023/11/16 00:16:25;;;;;;;40.72;17.67;;;;;;;;;;10288166;28;20072;-57
2023/11/16 00:21:23;;;;;;;20.75;9.45;;;;;;;;;;10288644;28;20089;-57
2023/11/16 00:26:23;;;;;;;23.52;11.35;;;;;;;;;;10294874;28;20080;-57
2023/11/16 00:31:26;;;;;;;;;;;;;;;;;;10295912;28;20064;-56
2023/11/16 00:36:25;;;;;;;14.85;8.20;;;;;;;;;;10298149;28;19967;-58
2023/11/16 00:41:24;;;;;;;5.80;3.40;;;;;;;;;;10306297;28;20057;-58
2023/11/16 00:46:23;;;;;;;14.50;7.88;;;;;;;;;;10296489;28;20040;-56
2023/11/16 00:51:21;;;;;;;23.27;12.05;;;;;;;;;;10296392;28;20108;-57
2023/11/16 00:56:19;;;;;;;20.58;9.23;;;;;;;;;;10294618;28;20103;-58
2023/11/16 01:01:19;;;;;;;17.75;8.52;;;;;;;;;;10294601;28;20041;-58
2023/11/16 01:06:17;;;;;;;17.17;7.80;;;;;;;;;;10293290;28;20065;-58
2023/11/16 01:11:16;;;;;;;19.92;9.38;;;;;;;;;;10294893;28;20064;-57
2023/11/16 01:16:15;;;;;;;23.00;10.60;;;;;;;;;;10290989;28;20068;-59
2023/11/16 01:21:15;;;;;;;26.45;11.45;;;;;;;;;;10292357;28;20053;-58
2023/11/16 01:26:15;;;;;;;19.95;8.25;;;;;;;;;;10292105;28;20418;-58
2023/11/16 01:31:14;;;;;;;20.17;8.85;;;;;;;;;;10292629;28;20068;-58
2023/11/16 01:36:13;;;;;;;22.70;11.05;;;;;;;;;;10296341;28;20075;-56
2023/11/16 01:41:14;;;;;;;14.73;7.65;;;;;;;;;;10293282;28;20654;-57
2023/11/16 01:46:12;;;;;;;16.75;7.70;;;;;;;;;;10289249;28;20533;-56
2023/11/16 01:51:12;;;;;;;23.88;9.85;;;;;;;;;;10286698;28;20473;-56
2023/11/16 01:56:11;;;;;;;12.45;5.90;;;;;;;;;;10293634;28;20079;-57
2023/11/16 02:01:12;;;;;;;9.10;4.78;;;;;;;;;;10290181;28;20048;-55
2023/11/16 02:06:10;;;;;;;16.30;7.57;;;;;;;;;;10291028;28;20510;-56
2023/11/16 02:11:09;;;;;;;43.30;19.58;;;;;;;;;;10291754;28;20072;-56
2023/11/16 02:16:09;;;;;;;33.30;16.15;;;;;;;;;;10290737;28;20056;-56
2023/11/16 02:21:08;;;;;;;12.30;6.55;;;;;;;;;;10288588;28;20544;-56
2023/11/16 02:26:10;;;;;;;26.92;12.85;;;;;;;;;;10291528;28;20068;-57
2023/11/16 02:31:09;;;;;;;34.25;16.25;;;;;;;;;;10291235;28;20067;-56
2023/11/16 02:36:10;;;;;;;23.08;10.45;;;;;;;;;;10292369;28;20076;-52
2023/11/16 02:41:10;;;;;;;18.70;10.15;;;;;;;;;;10291796;28;20084;-54
2023/11/16 02:46:08;;;;;;;16.60;8.50;;;;;;;;;;10292775;28;20461;-52
2023/11/16 02:51:06;;;;;;;8.93;4.18;;;;;;;;;;10290079;28;20068;-57
2023/11/16 02:56:05;;;;;;;6.25;3.30;;;;;;;;;;10284084;28;20079;-58
2023/11/16 03:01:08;;;;;;;5.07;3.60;;;;;;;;;;10290901;28;20079;-57
2023/11/16 03:06:07;;;;;;;8.75;4.82;;;;;;;;;;10290370;28;20072;-58
2023/11/16 03:11:06;;;;;;;4.97;2.97;;;;;;;;;;10288617;28;20072;-56
2023/11/16 03:16:06;;;;;;;6.90;4.72;;;;;;;;;;10292113;28;20077;-58
2023/11/16 03:21:05;;;;;;;7.65;3.80;;;;;;;;;;10296139;28;20542;-57
2023/11/16 03:26:05;;;;;;;3.15;2.50;;;;;;;;;;10288201;28;20075;-56
2023/11/16 03:31:05;;;;;;;4.93;3.05;;;;;;;;;;10288032;28;20064;-56
2023/11/16 03:36:05;;;;;;;4.05;3.60;;;;;;;;;;10289487;28;20080;-57
2023/11/16 03:41:04;;;;;;;3.92;3.53;;;;;;;;;;10287455;28;20088;-58
2023/11/16 03:46:02;;;;;;;5.63;3.63;;;;;;;;;;10288364;28;20079;-55
2023/11/16 03:51:04;;;;;;;4.63;3.00;;;;;;;;;;10291802;28;20060;-53
2023/11/16 03:56:04;;;;;;;6.85;4.20;;;;;;;;;;10285507;28;20060;-56
2023/11/16 04:01:03;;;;;;;5.85;2.92;;;;;;;;;;10292870;28;20079;-55
2023/11/16 04:06:01;;;;;;;5.43;3.92;;;;;;;;;;10296316;28;20123;-57
2023/11/16 04:10:59;;;;;;;3.63;3.05;;;;;;;;;;10295814;28;20076;-58
2023/11/16 04:15:59;;;;;;;3.47;3.15;;;;;;;;;;10295132;28;20475;-55
2023/11/16 04:20:57;;;;;;;4.90;3.38;;;;;;;;;;10295726;28;20084;-57
2023/11/16 04:25:56;;;;;;;5.80;3.85;;;;;;;;;;10294653;28;20506;-58
2023/11/16 04:30:54;;;;;;;3.53;2.40;;;;;;;;;;10298628;28;20068;-55
2023/11/16 04:35:55;;;;;;;2.47;2.25;;;;;;;;;;10296059;28;20080;-57
2023/11/16 04:40:55;;;;;;;2.90;2.50;;;;;;;;;;10295448;28;20110;-58
2023/11/16 04:45:54;;;;;;;2.92;2.47;;;;;;;;;;10295943;28;20072;-57
2023/11/16 04:50:55;;;;;;;3.03;2.42;;;;;;;;;;10293035;28;20603;-57
2023/11/16 04:55:54;;;;;;;6.80;4.38;;;;;;;;;;10294151;28;20067;-58
2023/11/16 05:00:52;;;;;;;3.33;2.97;;;;;;;;;;10292269;28;20083;-56
2023/11/16 05:05:51;;;;;;;2.55;2.25;;;;;;;;;;10294417;28;20064;-58
2023/11/16 05:10:51;;;;;;;3.90;2.60;;;;;;;;;;10294203;28;20064;-56
2023/11/16 05:15:49;;;;;;;4.47;3.00;;;;;;;;;;10294279;28;20072;-57
2023/11/16 05:20:47;;;;;;;3.75;3.35;;;;;;;;;;10288905;28;20489;-57
2023/11/16 05:25:46;;;;;;;2.90;2.45;;;;;;;;;;10292886;28;20056;-58
2023/11/16 05:30:48;;;;;;;8.77;4.07;;;;;;;;;;10291408;28;20079;-55
2023/11/16 05:35:48;;;;;;;4.35;3.80;;;;;;;;;;10287978;28;20084;-58
2023/11/16 05:40:46;;;;;;;4.40;2.65;;;;;;;;;;10283907;28;20502;-55
2023/11/16 05:45:46;;;;;;;4.07;2.67;;;;;;;;;;10289071;28;20069;-58
2023/11/16 05:50:45;;;;;;;3.67;3.05;;;;;;;;;;10291090;28;20462;-56
2023/11/16 05:55:43;;;;;;;4.00;2.95;;;;;;;;;;10288716;28;20060;-57
2023/11/16 06:00:42;;;;;;;6.78;3.50;;;;;;;;;;10287596;28;20073;-56
2023/11/16 06:05:41;;;;;;;4.28;2.90;;;;;;;;;;10286818;28;20087;-58
2023/11/16 06:10:41;;;;;;;2.85;2.50;;;;;;;;;;10290385;28;20503;-56
2023/11/16 06:15:39;;;;;;;4.47;2.38;;;;;;;;;;10291251;28;20072;-56
2023/11/16 06:20:38;;;;;;;3.25;2.35;;;;;;;;;;10289560;28;20088;-57
2023/11/16 06:25:37;;;;;;;6.13;3.45;;;;;;;;;;10291983;28;20060;-55
2023/11/16 06:30:38;;;;;;;11.15;6.13;;;;;;;;;;10289775;28;20068;-57
2023/11/16 06:35:37;;;;;;;5.22;4.25;;;;;;;;;;10289237;28;20497;-56
2023/11/16 06:40:35;;;;;;;6.68;5.50;;;;;;;;;;10288225;28;20076;-57
2023/11/16 06:45:39;;;;;;;5.40;4.55;;;;;;;;;;10284866;28;20095;-57
2023/11/16 06:50:38;;;;;;;5.53;4.90;;;;;;;;;;10283656;28;20067;-58
2023/11/16 06:55:38;;;;;;;5.13;3.92;;;;;;;;;;10286887;28;20067;-55
2023/11/16 07:00:38;;;;;;;5.57;3.90;;;;;;;;;;10285067;28;20087;-57
2023/11/16 07:05:36;;;;;;;9.90;5.07;;;;;;;;;;10276730;28;20076;-58
2023/11/16 07:10:34;;;;;;;5.07;3.65;;;;;;;;;;10276841;28;20057;-61
2023/11/16 07:15:33;;;;;;;5.82;3.35;;;;;;;;;;10289073;28;20080;-57
2023/11/16 07:20:35;;;;;;;4.93;3.20;;;;;;;;;;10285749;28;20087;-58
2023/11/16 07:25:33;;;;;;;10.05;8.93;;;;;;;;;;10284031;28;20076;-58
2023/11/16 07:30:33;;;;;;;3.28;2.58;;;;;;;;;;10287184;28;20121;-58
2023/11/16 07:35:33;;;;;;;3.80;3.35;;;;;;;;;;10291839;28;20087;-56
2023/11/16 07:40:32;;;;;;;9.10;3.30;;;;;;;;;;10297466;28;20076;-57
2023/11/16 07:45:31;;;;;;;5.07;4.57;;;;;;;;;;10296475;28;20072;-57
2023/11/16 07:50:31;;;;;;;3.75;2.47;;;;;;;;;;10289470;28;20514;-57
2023/11/16 07:55:33;;;;;;;3.15;2.28;;;;;;;;;;10296682;28;20076;-57
2023/11/16 08:00:37;;;;;;;2.80;2.20;;;;;;;;;;10290816;28;20088;-58
2023/11/16 08:05:37;;;;;;;4.95;3.35;;;;;;;;;;10288909;28;20073;-59
2023/11/16 08:10:37;;;;;;;9.55;5.53;;;;;;;;;;10292123;28;20056;-59
2023/11/16 08:15:35;;;;;;;8.20;5.03;;;;;;;;;;10293369;28;20475;-58
2023/11/16 08:20:33;;;;;;;9.70;4.10;;;;;;;;;;10289316;28;20099;-58
2023/11/16 08:25:33;;;;;;;10.77;2.90;;;;;;;;;;10292676;28;20075;-57
2023/11/16 08:30:33;;;;;;;4.97;3.13;;;;;;;;;;10293097;28;20064;-58
2023/11/16 08:35:33;;;;;;;2.97;2.50;;;;;;;;;;10289753;28;20083;-58
2023/11/16 08:40:31;;;;;;;12.82;2.83;;;;;;;;;;10289019;28;20073;-57
2023/11/16 08:45:31;;;;;;;4.43;2.47;;;;;;;;;;10292701;28;20076;-57
2023/11/16 08:50:31;;;;;;;2.90;2.25;;;;;;;;;;10290183;28;20083;-58
2023/11/16 08:55:30;;;;;;;4.50;2.67;;;;;;;;;;10290259;28;20083;-58
2023/11/16 09:00:33;;;;;;;6.55;3.75;;;;;;;;;;10290153;28;20099;-57
2023/11/16 09:05:35;;;;;;;5.53;4.05;;;;;;;;;;10291151;28;20068;-56
2023/11/16 09:10:34;;;;;;;8.23;2.80;;;;;;;;;;10288127;28;20075;-53
2023/11/16 09:15:33;;;;;;;4.50;2.33;;;;;;;;;;10293073;28;20075;-57
2023/11/16 09:20:33;;;;;;;4.85;3.50;;;;;;;;;;10291763;28;20081;-55
2023/11/16 09:25:32;;;;;;;3.42;2.17;;;;;;;;;;10291918;28;20072;-55
2023/11/16 09:30:30;;;;;;;4.75;3.00;;;;;;;;;;10289213;28;20060;-58
2023/11/16 09:35:29;;;;;;;7.70;2.13;;;;;;;;;;10291809;28;20076;-56
2023/11/16 09:40:30;;;;;;;5.40;2.72;;;;;;;;;;10290842;28;20072;-54
2023/11/16 09:45:29;;;;;;;3.40;2.55;;;;;;;;;;10288987;28;20068;-57
2023/11/16 09:50:28;;;;;;;2.92;2.17;;;;;;;;;;10287943;28;20072;-57
2023/11/16 09:55:30;;;;;;;3.33;2.13;;;;;;;;;;10286861;28;20075;-57
2023/11/16 10:00:32;;;;;;;3.08;2.00;;;;;;;;;;10286763;28;20080;-56
2023/11/16 10:05:34;;;;;;;2.20;1.80;;;;;;;;;;10289198;28;20072;-56
2023/11/16 10:10:33;;;;;;;4.28;2.38;;;;;;;;;;10293938;28;20064;-57
2023/11/16 10:15:35;;;;;;;2.15;1.73;;;;;;;;;;10287161;28;20080;-53
2023/11/16 10:20:34;;;;;;;3.08;2.53;;;;;;;;;;10286581;28;20080;-53
2023/11/16 10:25:33;;;;;;;3.28;2.03;;;;;;;;;;10278979;28;20065;-56
2023/11/16 10:30:36;;;;;;;2.30;2.10;;;;;;;;;;10288019;28;20498;-58
2023/11/16 10:35:35;;;;;;;1.98;1.67;;;;;;;;;;10280026;28;20072;-59
2023/11/16 10:40:34;;;;;;;2.03;1.77;;;;;;;;;;10282183;28;20083;-56
2023/11/16 10:45:34;;;;;;;6.20;2.35;;;;;;;;;;10278234;28;20072;-57
2023/11/16 10:50:33;;;;;;;2.30;2.10;;;;;;;;;;10281896;28;20072;-57
2023/11/16 10:55:32;;;;;;;4.82;2.83;;;;;;;;;;10292561;28;20083;-56
2023/11/16 11:00:34;;;;;;;5.00;2.33;;;;;;;;;;10284377;28;20080;-57
2023/11/16 11:05:36;;;;;;;3.03;1.67;;;;;;;;;;10286840;28;20125;-56
2023/11/16 11:10:37;;;;;;;2.92;2.47;;;;;;;;;;10291092;28;20104;-59
2023/11/16 11:15:36;;;;;;;2.33;1.92;;;;;;;;;;10284813;28;20072;-58
2023/11/16 11:20:38;;;;;;;3.58;1.92;;;;;;;;;;10279404;28;20093;-56
2023/11/16 11:25:37;;;;;;;3.55;2.72;;;;;;;;;;10279545;28;20068;-57
2023/11/16 11:30:37;;;;;;;7.32;4.13;;;;;;;;;;10286167;28;20451;-56
2023/11/16 11:35:37;;;;;;;5.93;2.28;;;;;;;;;;10283448;28;20079;-58
2023/11/16 11:40:37;;;;;;;2.10;1.67;;;;;;;;;;10287032;28;20076;-56
2023/11/16 11:45:35;;;;;;;5.13;2.92;;;;;;;;;;10282026;28;20075;-57
2023/11/16 11:50:34;;;;;;;6.28;3.35;;;;;;;;;;10284353;28;20087;-58
2023/11/16 11:55:34;;;;;;;2.65;2.38;;;;;;;;;;10288365;28;20888;-56
2023/11/16 12:00:32;;;;;;;6.35;3.28;;;;;;;;;;10285524;28;20076;-56
2023/11/16 12:05:31;;;;;;;2.10;1.90;;;;;;;;;;10288564;28;20072;-56
2023/11/16 12:10:30;;;;;;;3.08;2.65;;;;;;;;;;10287401;28;20081;-55
2023/11/16 12:15:29;;;;;;;6.80;2.28;;;;;;;;;;10282838;28;20076;-55
2023/11/16 12:20:30;;;;;;;1.98;1.77;;;;;;;;;;10281904;28;20084;-55
2023/11/16 12:25:29;;;;;;;2.80;1.88;;;;;;;;;;10294215;28;20072;-56
2023/11/16 12:30:29;;;;;;;2.75;1.85;;;;;;;;;;10293539;28;20057;-57
2023/11/16 12:35:29;;;;;;;5.60;1.80;;;;;;;;;;10295360;28;20076;-57
2023/11/16 12:40:27;;;;;;;3.53;2.17;;;;;;;;;;10289321;28;20073;-53
2023/11/16 12:45:28;;;;;;;3.00;2.30;;;;;;;;;;10288748;28;20144;-52
2023/11/16 12:50:27;;;;;;;1.88;1.58;;;;;;;;;;10291225;28;20094;-52
2023/11/16 12:55:26;;;;;;;1.80;1.40;;;;;;;;;;10295724;28;20087;-56
2023/11/16 13:00:24;;;;;;;2.65;1.67;;;;;;;;;;10291652;28;20072;-56
2023/11/16 13:05:24;;;;;;;3.05;1.80;;;;;;;;;;10292629;28;20555;-57
2023/11/16 13:10:23;;;;;;;2.42;1.85;;;;;;;;;;10294861;28;20076;-53
2023/11/16 13:15:23;;;;;;;3.03;1.92;;;;;;;;;;10288017;28;20442;-57
2023/11/16 13:20:21;;;;;;;3.03;1.98;;;;;;;;;;10290506;28;20087;-57
2023/11/16 13:25:20;;;;;;;2.55;1.98;;;;;;;;;;10291575;28;20470;-51
2023/11/16 13:30:18;;;;;;;3.42;2.50;;;;;;;;;;10293679;28;20446;-56
2023/11/16 13:35:18;;;;;;;1.60;1.40;;;;;;;;;;10287233;28;20072;-56
2023/11/16 13:40:17;;;;;;;3.35;2.13;;;;;;;;;;10290714;28;20064;-57
2023/11/16 13:45:17;;;;;;;3.38;2.08;;;;;;;;;;10292043;28;20069;-57
2023/11/16 13:50:16;;;;;;;2.63;2.42;;;;;;;;;;10290223;28;20075;-56
2023/11/16 13:55:17;;;;;;;2.55;1.92;;;;;;;;;;10290933;28;20359;-56
2023/11/16 14:00:19;;;;;;;4.75;2.28;;;;;;;;;;10289558;28;20076;-56
2023/11/16 14:05:17;;;;;;;6.30;4.85;;;;;;;;;;10288438;28;20091;-57
2023/11/16 14:10:17;;;;;;;9.23;7.03;;;;;;;;;;10289354;28;20076;-55
2023/11/16 14:15:23;;;;;;;10.77;8.75;;;;;;;;;;10289357;28;20103;-60
2023/11/16 14:20:21;;;;;;;5.03;4.28;;;;;;;;;;10285406;28;20083;-56
2023/11/16 14:25:21;;;;;;;13.13;8.55;;;;;;;;;;10290046;28;20486;-57
2023/11/16 14:30:34;;;;;;;8.18;7.47;;;;;;;;;;10289237;28;20481;-58
2023/11/16 14:35:32;;;;;;;6.28;4.20;;;;;;;;;;10290396;28;20540;-58
2023/11/16 14:40:32;;;;;;;6.28;3.80;;;;;;;;;;10289396;28;20078;-56
2023/11/16 14:45:32;;;;;;;13.45;10.13;;;;;;;;;;10288911;28;20091;-53
2023/11/16 14:50:30;;;;;;;33.15;21.75;;;;;;;;;;10290441;28;20067;-58
2023/11/16 14:55:28;;;;;;;75.13;49.55;;;;;;;;;;10284121;28;20072;-57
2023/11/16 15:00:30;;;;;;;21.55;18.95;;;;;;;;;;10284976;28;20068;-53
2023/11/16 15:05:29;;;;;;;11.82;9.65;;;;;;;;;;10286149;28;20071;-56
2023/11/16 15:10:36;;;;;;;11.02;9.00;;;;;;;;;;10289155;28;20434;-58
2023/11/16 15:15:36;;;;;;;37.97;12.98;;;;;;;;;;10287441;28;20084;-57
2023/11/16 15:20:35;;;;;;;11.77;7.60;;;;;;;;;;10287254;28;20083;-57
2023/11/16 15:25:34;;;;;;;15.23;12.40;;;;;;;;;;10284015;28;20136;-55
2023/11/16 15:30:32;;;;;;;11.77;10.23;;;;;;;;;;10282750;28;20479;-53
2023/11/16 15:35:32;;;;;;;14.85;10.93;;;;;;;;;;10290208;28;20546;-51
2023/11/16 15:40:32;;;;;;;25.00;15.23;;;;;;;;;;10287814;28;20064;-56
2023/11/16 15:45:31;;;;;;;12.95;10.65;;;;;;;;;;10281796;28;20072;-57
2023/11/16 15:50:31;;;;;;;10.55;9.45;;;;;;;;;;10283811;28;20494;-49
2023/11/16 15:55:31;;;;;;;12.40;9.98;;;;;;;;;;10290901;28;20497;-56
2023/11/16 16:00:29;;;;;;;9.57;8.10;;;;;;;;;;10289879;28;20061;-56
2023/11/16 16:05:27;;;;;;;12.57;9.15;;;;;;;;;;10289035;28;20091;-57
2023/11/16 16:10:26;;;;;;;12.52;8.55;;;;;;;;;;10290886;28;20064;-55
2023/11/16 16:15:27;;;;;;;9.55;7.25;;;;;;;;;;10295609;28;20080;-57
2023/11/16 16:20:26;;;;;;;7.35;6.28;;;;;;;;;;10289124;28;20095;-56
2023/11/16 16:25:24;;;;;;;7.75;4.90;;;;;;;;;;10289359;28;20080;-55
2023/11/16 16:30:22;;;;;;;11.13;8.73;;;;;;;;;;10292809;28;20072;-58
2023/11/16 16:35:22;;;;;;;6.72;5.57;;;;;;;;;;10294132;28;20076;-57
2023/11/16 16:40:20;;;;;;;10.85;8.40;;;;;;;;;;10291390;28;20100;-59
2023/11/16 16:45:19;;;;;;;17.23;11.65;;;;;;;;;;10285514;28;20091;-57
2023/11/16 16:50:17;;;;;;;14.45;9.43;;;;;;;;;;10291031;28;20075;-57
2023/11/16 16:55:16;;;;;;;9.23;6.90;;;;;;;;;;10290627;28;20079;-59
2023/11/16 17:00:15;;;;;;;13.07;11.13;;;;;;;;;;10287306;28;20079;-56
2023/11/16 17:05:13;;;;;;;15.45;12.27;;;;;;;;;;10283406;28;20081;-58
2023/11/16 17:10:11;;;;;;;11.90;8.45;;;;;;;;;;10286810;28;20083;-49
2023/11/16 17:15:11;;;;;;;8.90;7.18;;;;;;;;;;10291469;28;20068;-51
2023/11/16 17:20:13;;;;;;;9.23;6.35;;;;;;;;;;10285074;28;20080;-55
2023/11/16 17:25:12;;;;;;;13.63;11.55;;;;;;;;;;10286818;28;20080;-55
2023/11/16 17:30:13;;;;;;;25.17;18.80;;;;;;;;;;10290314;28;20071;-51
2023/11/16 17:35:12;;;;;;;8.45;6.75;;;;;;;;;;10291589;28;20067;-50
2023/11/16 17:40:14;;;;;;;9.38;6.82;;;;;;;;;;10289104;28;20079;-54
2023/11/16 17:45:21;;;;;;;9.10;6.72;;;;;;;;;;10284097;28;20546;-55
2023/11/16 17:50:20;;;;;;;9.35;7.65;;;;;;;;;;10281450;28;20095;-54
2023/11/16 17:55:19;;;;;;;10.10;7.53;;;;;;;;;;10284768;28;20073;-55
2023/11/16 18:00:22;;;;;;;10.82;8.40;;;;;;;;;;10286475;28;20087;-55
2023/11/16 18:05:21;;;;;;;14.63;7.30;;;;;;;;;;10293013;28;20083;-54
2023/11/16 18:10:20;;;;;;;10.15;6.97;;;;;;;;;;10290013;28;20138;-55
2023/11/16 18:15:20;;;;;;;11.80;5.82;;;;;;;;;;10290930;28;20064;-52
2023/11/16 18:20:18;;;;;;;10.20;7.10;;;;;;;;;;10289477;28;20096;-55
2023/11/16 18:25:17;;;;;;;6.80;6.10;;;;;;;;;;10288689;28;20099;-52
2023/11/16 18:30:15;;;;;;;7.88;6.40;;;;;;;;;;10289004;28;20064;-56
2023/11/16 18:35:15;;;;;;;8.38;5.55;;;;;;;;;;10284782;28;20065;-55
2023/11/16 18:40:13;;;;;;;8.00;5.93;;;;;;;;;;10287214;28;20068;-56
2023/11/16 18:45:12;;;;;;;6.72;4.78;;;;;;;;;;10287185;28;20068;-55
2023/11/16 18:50:10;;;;;;;8.00;5.90;;;;;;;;;;10288392;28;20081;-57
2023/11/16 18:55:10;;;;;;;7.32;4.70;;;;;;;;;;10283437;28;20079;-56
2023/11/16 19:00:09;;;;;;;7.15;5.57;;;;;;;;;;10287594;28;20079;-56
2023/11/16 19:05:09;;;;;;;8.43;7.30;;;;;;;;;;10281685;28;20076;-54
2023/11/16 19:10:10;;;;;;;7.20;5.15;;;;;;;;;;10287520;28;20083;-55
2023/11/16 19:15:11;;;;;;;11.35;9.27;;;;;;;;;;10285130;28;20072;-53
2023/11/16 19:20:13;;;;;;;6.20;4.78;;;;;;;;;;10286139;28;20091;-54
2023/11/16 19:25:14;;;;;;;10.98;6.22;;;;;;;;;;10291922;28;20080;-56
2023/11/16 19:30:14;;;;;;;8.82;7.18;;;;;;;;;;10291694;28;20072;-56
2023/11/16 19:35:14;;;;;;;6.40;5.53;;;;;;;;;;10293069;28;20076;-54
2023/11/16 19:40:15;;;;;;;7.72;6.32;;;;;;;;;;10290182;28;20068;-58
2023/11/16 19:45:31;;;;;;;7.70;5.75;;;;;;;;;;10292295;28;20068;-55
2023/11/16 19:50:34;;;;;;;7.10;6.25;;;;;;;;;;10298137;28;20067;-56
2023/11/16 19:55:33;;;;;;;9.70;6.55;;;;;;;;;;10292926;28;20103;-54
2023/11/16 20:00:32;;;;;;;28.52;18.20;;;;;;;;;;10287271;28;20525;-55
2023/11/16 20:05:30;;;;;;;38.55;23.33;;;;;;;;;;10290725;28;20481;-56
2023/11/16 20:10:30;;;;;;;44.75;27.35;;;;;;;;;;10294859;28;20375;-53
2023/11/16 20:15:30;;;;;;;7.10;4.53;;;;;;;;;;10294319;28;21345;-56
2023/11/16 20:20:28;;;;;;;5.50;3.78;;;;;;;;;;10293854;28;20079;-54
2023/11/16 20:25:30;;;;;;;7.45;3.63;;;;;;;;;;10295569;28;20079;-53
2023/11/16 20:30:31;;;;;;;4.80;2.75;;;;;;;;;;10293984;28;20322;-56
2023/11/16 20:35:29;;;;;;;5.00;4.25;;;;;;;;;;10286744;28;20080;-51
2023/11/16 20:40:27;;;;;;;3.55;3.08;;;;;;;;;;10290575;28;20060;-54
2023/11/16 20:45:30;;;;;;;3.92;2.85;;;;;;;;;;10291676;28;20087;-53
2023/11/16 20:50:29;;;;;;;5.55;3.40;;;;;;;;;;10281485;28;20064;-52
2023/11/16 20:55:28;;;;;;;5.60;3.20;;;;;;;;;;10289308;28;20076;-54
2023/11/16 21:00:26;;;;;;;5.65;3.70;;;;;;;;;;10292908;28;20068;-51
2023/11/16 21:05:24;;;;;;;4.25;3.63;;;;;;;;;;10295381;28;20759;-50
2023/11/16 21:10:24;;;;;;;11.00;6.28;;;;;;;;;;10288309;28;20512;-54
2023/11/16 21:15:22;;;;;;;5.93;4.88;;;;;;;;;;10293009;28;20087;-54
2023/11/16 21:20:21;;;;;;;4.93;3.97;;;;;;;;;;10291907;28;20083;-52
2023/11/16 21:25:19;;;;;;;5.65;3.42;;;;;;;;;;10292241;28;20071;-53
2023/11/16 21:30:19;;;;;;;6.88;3.90;;;;;;;;;;10289886;28;20084;-52
2023/11/16 21:35:17;;;;;;;6.13;3.42;;;;;;;;;;10289834;28;20068;-57
2023/11/16 21:40:18;;;;;;;6.00;3.38;;;;;;;;;;10289110;28;20068;-53
2023/11/16 21:45:19;;;;;;;13.43;4.80;;;;;;;;;;10295887;28;20083;-54
2023/11/16 21:50:17;;;;;;;4.45;3.00;;;;;;;;;;10284968;28;20071;-53
2023/11/16 21:55:16;;;;;;;5.43;3.20;;;;;;;;;;10289192;28;20106;-54
2023/11/16 22:00:16;;;;;;;3.58;2.85;;;;;;;;;;10289443;28;20060;-50
2023/11/16 22:05:16;;;;;;;4.93;3.10;;;;;;;;;;10288381;28;20099;-55
2023/11/16 22:10:15;;;;;;;6.50;3.22;;;;;;;;;;10289037;28;20084;-51
2023/11/16 22:15:16;;;;;;;4.80;3.25;;;;;;;;;;10290377;28;20082;-57
2023/11/16 22:20:16;;;;;;;5.15;3.60;;;;;;;;;;10290407;28;20134;-56
2023/11/16 22:25:15;;;;;;;3.75;2.63;;;;;;;;;;10283689;28;20096;-53
2023/11/16 22:30:16;;;;;;;3.63;2.85;;;;;;;;;;10287715;28;20065;-56
2023/11/16 22:35:18;;;;;;;3.90;2.97;;;;;;;;;;10283082;28;20099;-58
2023/11/16 22:40:18;;;;;;;3.00;2.28;;;;;;;;;;10284272;28;20079;-57
2023/11/16 22:45:18;;;;;;;5.15;3.10;;;;;;;;;;10286211;28;20102;-56
2023/11/16 22:50:19;;;;;;;3.75;2.67;;;;;;;;;;10287374;28;20080;-53
2023/11/16 22:55:17;;;;;;;2.88;2.33;;;;;;;;;;10287586;28;20064;-54
2023/11/16 23:00:37;;;;;;;3.30;2.80;;;;;;;;;;10289861;28;20072;-57
2023/11/16 23:05:38;;;;;;;3.03;2.50;;;;;;;;;;10288162;28;20084;-56
2023/11/16 23:10:36;;;;;;;3.20;2.13;;;;;;;;;;10287819;28;20069;-52
2023/11/16 23:15:34;;;;;;;2.97;2.40;;;;;;;;;;10289873;28;20087;-53
2023/11/16 23:20:33;;;;;;;3.05;2.63;;;;;;;;;;10286414;28;20071;-55
2023/11/16 23:25:35;;;;;;;3.28;2.55;;;;;;;;;;10288523;28;20072;-55
2023/11/16 23:30:34;;;;;;;5.60;2.53;;;;;;;;;;10288608;28;20073;-51
2023/11/16 23:35:32;;;;;;;15.65;3.05;;;;;;;;;;10286232;28;20080;-54
2023/11/16 23:40:31;;;;;;;3.20;2.50;;;;;;;;;;10285006;28;20087;-54
2023/11/16 23:45:30;;;;;;;2.90;2.28;;;;;;;;;;10286298;28;20071;-54
2023/11/16 23:50:29;;;;;;;3.78;2.42;;;;;;;;;;10287189;28;20076;-50
2023/11/16 23:55:28;;;;;;;3.72;2.90;;;;;;;;;;10285078;28;20064;-52
